sensor_id;sensor_type;location;lat;lon;timestamp;P1;durP1;ratioP1;P2;durP2;ratioP2
52962;SDS011;38827;53.024;6.596;2022-12-18T00:02:16;104.03;;;35.70;;
52962;SDS011;38827;53.024;6.596;2022-12-18T00:04:42;102.13;;;36.47;;
52962;SDS011;38827;53.024;6.596;2022-12-18T00:07:08;93.20;;;33.53;;
52962;SDS011;38827;53.024;6.596;2022-12-18T00:09:34;93.47;;;33.57;;
52962;SDS011;38827;53.024;6.596;2022-12-18T00:11:59;97.07;;;34.17;;
52962;SDS011;38827;53.024;6.596;2022-12-18T00:14:25;88.68;;;33.65;;
52962;SDS011;38827;53.024;6.596;2022-12-18T00:16:50;90.87;;;33.53;;
52962;SDS011;38827;53.024;6.596;2022-12-18T00:19:16;89.95;;;33.97;;
52962;SDS011;38827;53.024;6.596;2022-12-18T00:21:42;91.80;;;34.00;;
52962;SDS011;38827;53.024;6.596;2022-12-18T00:24:09;92.35;;;33.10;;
52962;SDS011;38827;53.024;6.596;2022-12-18T00:26:37;95.88;;;35.78;;
52962;SDS011;38827;53.024;6.596;2022-12-18T00:31:41;97.70;;;33.50;;
52962;SDS011;38827;53.024;6.596;2022-12-18T00:34:12;105.30;;;34.88;;
52962;SDS011;38827;53.024;6.596;2022-12-18T00:36:38;108.55;;;36.75;;
52962;SDS011;38827;53.024;6.596;2022-12-18T00:39:04;112.30;;;37.25;;
52962;SDS011;38827;53.024;6.596;2022-12-18T00:41:30;112.40;;;35.20;;
52962;SDS011;38827;53.024;6.596;2022-12-18T00:44:16;106.10;;;35.63;;
52962;SDS011;38827;53.024;6.596;2022-12-18T00:46:43;106.50;;;35.63;;
52962;SDS011;38827;53.024;6.596;2022-12-18T00:49:10;104.05;;;36.30;;
52962;SDS011;38827;53.024;6.596;2022-12-18T00:51:35;108.45;;;36.75;;
52962;SDS011;38827;53.024;6.596;2022-12-18T00:54:01;104.57;;;36.17;;
52962;SDS011;38827;53.024;6.596;2022-12-18T00:56:27;107.05;;;37.13;;
52962;SDS011;38827;53.024;6.596;2022-12-18T00:58:52;112.40;;;37.67;;
52962;SDS011;38827;53.024;6.596;2022-12-18T01:01:18;112.00;;;37.90;;
52962;SDS011;38827;53.024;6.596;2022-12-18T01:03:44;85.75;;;28.73;;
52962;SDS011;38827;53.024;6.596;2022-12-18T01:08:38;101.15;;;33.47;;
52962;SDS011;38827;53.024;6.596;2022-12-18T01:11:22;99.57;;;33.38;;
52962;SDS011;38827;53.024;6.596;2022-12-18T01:13:51;108.73;;;34.70;;
52962;SDS011;38827;53.024;6.596;2022-12-18T01:16:18;94.43;;;33.28;;
52962;SDS011;38827;53.024;6.596;2022-12-18T01:18:44;95.87;;;34.07;;
52962;SDS011;38827;53.024;6.596;2022-12-18T01:21:12;104.60;;;34.83;;
52962;SDS011;38827;53.024;6.596;2022-12-18T01:23:40;102.15;;;35.42;;
52962;SDS011;38827;53.024;6.596;2022-12-18T01:26:10;109.00;;;36.00;;
52962;SDS011;38827;53.024;6.596;2022-12-18T01:28:37;99.63;;;34.85;;
52962;SDS011;38827;53.024;6.596;2022-12-18T01:31:13;113.43;;;35.93;;
52962;SDS011;38827;53.024;6.596;2022-12-18T01:33:41;111.25;;;35.50;;
52962;SDS011;38827;53.024;6.596;2022-12-18T01:36:07;111.57;;;36.97;;
52962;SDS011;38827;53.024;6.596;2022-12-18T01:38:39;114.50;;;36.83;;
52962;SDS011;38827;53.024;6.596;2022-12-18T01:41:04;111.33;;;38.20;;
52962;SDS011;38827;53.024;6.596;2022-12-18T01:43:53;115.10;;;38.17;;
52962;SDS011;38827;53.024;6.596;2022-12-18T01:46:21;121.18;;;37.63;;
52962;SDS011;38827;53.024;6.596;2022-12-18T01:48:48;114.78;;;37.38;;
52962;SDS011;38827;53.024;6.596;2022-12-18T01:51:22;116.60;;;37.05;;
52962;SDS011;38827;53.024;6.596;2022-12-18T01:53:49;117.60;;;38.90;;
52962;SDS011;38827;53.024;6.596;2022-12-18T01:56:18;119.50;;;39.08;;
52962;SDS011;38827;53.024;6.596;2022-12-18T01:58:48;115.50;;;39.67;;
52962;SDS011;38827;53.024;6.596;2022-12-18T02:01:20;122.07;;;39.10;;
52962;SDS011;38827;53.024;6.596;2022-12-18T02:03:47;124.07;;;39.53;;
52962;SDS011;38827;53.024;6.596;2022-12-18T02:06:15;119.10;;;39.80;;
52962;SDS011;38827;53.024;6.596;2022-12-18T02:09:13;115.15;;;37.97;;
52962;SDS011;38827;53.024;6.596;2022-12-18T02:14:35;113.28;;;38.40;;
52962;SDS011;38827;53.024;6.596;2022-12-18T02:28:39;117.50;;;39.13;;
52962;SDS011;38827;53.024;6.596;2022-12-18T02:31:11;114.20;;;42.38;;
52962;SDS011;38827;53.024;6.596;2022-12-18T02:33:40;118.93;;;40.42;;
52962;SDS011;38827;53.024;6.596;2022-12-18T02:36:09;121.70;;;41.17;;
52962;SDS011;38827;53.024;6.596;2022-12-18T02:38:37;115.00;;;39.78;;
52962;SDS011;38827;53.024;6.596;2022-12-18T02:41:04;120.35;;;41.53;;
52962;SDS011;38827;53.024;6.596;2022-12-18T02:43:31;121.38;;;43.08;;
52962;SDS011;38827;53.024;6.596;2022-12-18T02:45:57;120.47;;;42.03;;
52962;SDS011;38827;53.024;6.596;2022-12-18T02:48:26;110.32;;;40.00;;
52962;SDS011;38827;53.024;6.596;2022-12-18T02:53:49;111.40;;;38.58;;
52962;SDS011;38827;53.024;6.596;2022-12-18T02:56:37;112.90;;;40.47;;
52962;SDS011;38827;53.024;6.596;2022-12-18T02:59:12;118.45;;;40.88;;
52962;SDS011;38827;53.024;6.596;2022-12-18T03:02:02;107.68;;;39.10;;
52962;SDS011;38827;53.024;6.596;2022-12-18T03:07:33;107.80;;;38.13;;
52962;SDS011;38827;53.024;6.596;2022-12-18T03:10:24;110.90;;;38.25;;
52962;SDS011;38827;53.024;6.596;2022-12-18T03:13:05;112.97;;;39.78;;
52962;SDS011;38827;53.024;6.596;2022-12-18T03:15:35;116.43;;;39.65;;
52962;SDS011;38827;53.024;6.596;2022-12-18T03:18:23;116.45;;;38.13;;
52962;SDS011;38827;53.024;6.596;2022-12-18T03:20:54;111.57;;;38.63;;
52962;SDS011;38827;53.024;6.596;2022-12-18T03:23:27;112.57;;;39.25;;
52962;SDS011;38827;53.024;6.596;2022-12-18T03:25:57;121.32;;;39.83;;
52962;SDS011;38827;53.024;6.596;2022-12-18T03:28:26;113.55;;;39.67;;
52962;SDS011;38827;53.024;6.596;2022-12-18T03:30:56;109.28;;;36.35;;
52962;SDS011;38827;53.024;6.596;2022-12-18T03:33:25;105.10;;;36.90;;
52962;SDS011;38827;53.024;6.596;2022-12-18T03:35:59;101.30;;;33.93;;
52962;SDS011;38827;53.024;6.596;2022-12-18T03:38:27;112.32;;;37.47;;
52962;SDS011;38827;53.024;6.596;2022-12-18T03:41:03;104.80;;;35.25;;
52962;SDS011;38827;53.024;6.596;2022-12-18T03:43:43;96.65;;;35.58;;
52962;SDS011;38827;53.024;6.596;2022-12-18T03:46:27;104.85;;;36.53;;
52962;SDS011;38827;53.024;6.596;2022-12-18T03:49:06;104.90;;;35.58;;
52962;SDS011;38827;53.024;6.596;2022-12-18T03:51:59;97.80;;;34.33;;
52962;SDS011;38827;53.024;6.596;2022-12-18T03:54:42;102.78;;;35.22;;
52962;SDS011;38827;53.024;6.596;2022-12-18T03:57:14;104.65;;;36.25;;
52962;SDS011;38827;53.024;6.596;2022-12-18T04:00:04;109.80;;;37.70;;
52962;SDS011;38827;53.024;6.596;2022-12-18T04:02:37;119.22;;;38.88;;
52962;SDS011;38827;53.024;6.596;2022-12-18T04:05:06;104.47;;;37.92;;
52962;SDS011;38827;53.024;6.596;2022-12-18T04:07:33;115.90;;;37.05;;
52962;SDS011;38827;53.024;6.596;2022-12-18T04:10:00;107.35;;;37.83;;
52962;SDS011;38827;53.024;6.596;2022-12-18T04:12:28;115.57;;;38.22;;
52962;SDS011;38827;53.024;6.596;2022-12-18T04:14:55;106.43;;;37.40;;
52962;SDS011;38827;53.024;6.596;2022-12-18T04:17:21;109.07;;;37.65;;
52962;SDS011;38827;53.024;6.596;2022-12-18T04:19:47;107.45;;;38.13;;
52962;SDS011;38827;53.024;6.596;2022-12-18T04:22:13;106.90;;;37.35;;
52962;SDS011;38827;53.024;6.596;2022-12-18T04:24:39;105.97;;;35.53;;
52962;SDS011;38827;53.024;6.596;2022-12-18T04:27:05;110.03;;;36.97;;
52962;SDS011;38827;53.024;6.596;2022-12-18T04:29:30;101.43;;;34.33;;
52962;SDS011;38827;53.024;6.596;2022-12-18T04:31:56;99.87;;;34.80;;
52962;SDS011;38827;53.024;6.596;2022-12-18T04:34:22;74.80;;;25.63;;
52962;SDS011;38827;53.024;6.596;2022-12-18T04:36:47;99.37;;;33.93;;
52962;SDS011;38827;53.024;6.596;2022-12-18T04:39:13;97.13;;;33.50;;
52962;SDS011;38827;53.024;6.596;2022-12-18T04:41:39;93.72;;;34.08;;
52962;SDS011;38827;53.024;6.596;2022-12-18T04:44:06;101.32;;;35.40;;
52962;SDS011;38827;53.024;6.596;2022-12-18T04:46:32;70.97;;;26.97;;
52962;SDS011;38827;53.024;6.596;2022-12-18T04:48:57;94.87;;;33.37;;
52962;SDS011;38827;53.024;6.596;2022-12-18T04:51:23;101.00;;;37.67;;
52962;SDS011;38827;53.024;6.596;2022-12-18T04:53:49;99.80;;;36.57;;
52962;SDS011;38827;53.024;6.596;2022-12-18T04:56:15;93.23;;;35.20;;
52962;SDS011;38827;53.024;6.596;2022-12-18T04:58:42;86.50;;;33.72;;
52962;SDS011;38827;53.024;6.596;2022-12-18T05:01:09;87.95;;;33.85;;
52962;SDS011;38827;53.024;6.596;2022-12-18T05:03:40;99.75;;;35.67;;
52962;SDS011;38827;53.024;6.596;2022-12-18T05:06:05;95.17;;;36.63;;
52962;SDS011;38827;53.024;6.596;2022-12-18T05:08:31;86.57;;;34.27;;
52962;SDS011;38827;53.024;6.596;2022-12-18T05:11:01;88.10;;;32.83;;
52962;SDS011;38827;53.024;6.596;2022-12-18T05:13:31;84.72;;;32.88;;
52962;SDS011;38827;53.024;6.596;2022-12-18T05:15:58;74.50;;;30.45;;
52962;SDS011;38827;53.024;6.596;2022-12-18T05:18:23;78.93;;;31.27;;
52962;SDS011;38827;53.024;6.596;2022-12-18T05:20:50;77.47;;;30.05;;
52962;SDS011;38827;53.024;6.596;2022-12-18T05:23:17;76.50;;;31.75;;
52962;SDS011;38827;53.024;6.596;2022-12-18T05:25:46;78.53;;;32.03;;
52962;SDS011;38827;53.024;6.596;2022-12-18T05:28:22;77.50;;;30.77;;
52962;SDS011;38827;53.024;6.596;2022-12-18T05:30:50;69.75;;;29.73;;
52962;SDS011;38827;53.024;6.596;2022-12-18T05:33:17;80.18;;;32.55;;
52962;SDS011;38827;53.024;6.596;2022-12-18T05:41:03;62.92;;;27.45;;
52962;SDS011;38827;53.024;6.596;2022-12-18T05:43:44;63.97;;;26.55;;
52962;SDS011;38827;53.024;6.596;2022-12-18T05:46:25;59.92;;;25.90;;
52962;SDS011;38827;53.024;6.596;2022-12-18T05:54:23;63.53;;;28.00;;
52962;SDS011;38827;53.024;6.596;2022-12-18T05:57:02;65.28;;;27.65;;
52962;SDS011;38827;53.024;6.596;2022-12-18T05:59:28;68.35;;;29.05;;
52962;SDS011;38827;53.024;6.596;2022-12-18T06:01:54;66.90;;;28.40;;
52962;SDS011;38827;53.024;6.596;2022-12-18T06:04:19;64.63;;;27.67;;
52962;SDS011;38827;53.024;6.596;2022-12-18T06:06:45;64.90;;;26.77;;
52962;SDS011;38827;53.024;6.596;2022-12-18T06:09:10;67.90;;;31.97;;
52962;SDS011;38827;53.024;6.596;2022-12-18T06:11:37;60.17;;;27.33;;
52962;SDS011;38827;53.024;6.596;2022-12-18T06:14:04;62.22;;;26.50;;
52962;SDS011;38827;53.024;6.596;2022-12-18T06:16:31;60.53;;;26.58;;
52962;SDS011;38827;53.024;6.596;2022-12-18T06:21:29;60.05;;;25.23;;
52962;SDS011;38827;53.024;6.596;2022-12-18T06:23:56;58.83;;;25.45;;
52962;SDS011;38827;53.024;6.596;2022-12-18T06:26:21;58.33;;;25.67;;
52962;SDS011;38827;53.024;6.596;2022-12-18T06:28:47;59.57;;;25.70;;
52962;SDS011;38827;53.024;6.596;2022-12-18T06:31:13;57.03;;;23.43;;
52962;SDS011;38827;53.024;6.596;2022-12-18T06:33:39;53.43;;;24.70;;
52962;SDS011;38827;53.024;6.596;2022-12-18T06:36:09;56.47;;;24.73;;
52962;SDS011;38827;53.024;6.596;2022-12-18T06:38:37;66.10;;;26.75;;
52962;SDS011;38827;53.024;6.596;2022-12-18T06:41:10;52.95;;;23.85;;
52962;SDS011;38827;53.024;6.596;2022-12-18T06:43:37;56.47;;;24.48;;
52962;SDS011;38827;53.024;6.596;2022-12-18T06:46:04;46.67;;;20.60;;
52962;SDS011;38827;53.024;6.596;2022-12-18T06:48:30;56.55;;;25.83;;
52962;SDS011;38827;53.024;6.596;2022-12-18T06:50:56;46.07;;;20.57;;
52962;SDS011;38827;53.024;6.596;2022-12-18T06:53:24;58.00;;;24.88;;
52962;SDS011;38827;53.024;6.596;2022-12-18T06:55:50;57.80;;;25.30;;
52962;SDS011;38827;53.024;6.596;2022-12-18T06:58:16;59.13;;;26.40;;
52962;SDS011;38827;53.024;6.596;2022-12-18T07:00:42;60.67;;;25.27;;
52962;SDS011;38827;53.024;6.596;2022-12-18T07:03:11;62.47;;;25.08;;
52962;SDS011;38827;53.024;6.596;2022-12-18T07:05:40;56.70;;;25.65;;
52962;SDS011;38827;53.024;6.596;2022-12-18T07:08:06;57.33;;;24.67;;
52962;SDS011;38827;53.024;6.596;2022-12-18T07:10:32;55.87;;;24.17;;
52962;SDS011;38827;53.024;6.596;2022-12-18T07:12:57;61.93;;;24.77;;
52962;SDS011;38827;53.024;6.596;2022-12-18T07:15:23;50.53;;;23.13;;
52962;SDS011;38827;53.024;6.596;2022-12-18T07:17:48;56.97;;;24.93;;
52962;SDS011;38827;53.024;6.596;2022-12-18T07:20:14;50.53;;;23.23;;
52962;SDS011;38827;53.024;6.596;2022-12-18T07:22:40;56.07;;;25.70;;
52962;SDS011;38827;53.024;6.596;2022-12-18T07:25:06;51.23;;;23.87;;
52962;SDS011;38827;53.024;6.596;2022-12-18T07:27:32;51.55;;;23.02;;
52962;SDS011;38827;53.024;6.596;2022-12-18T07:29:57;48.43;;;22.10;;
52962;SDS011;38827;53.024;6.596;2022-12-18T07:32:23;50.73;;;22.83;;
52962;SDS011;38827;53.024;6.596;2022-12-18T07:34:49;45.70;;;22.03;;
52962;SDS011;38827;53.024;6.596;2022-12-18T07:37:14;45.20;;;21.07;;
52962;SDS011;38827;53.024;6.596;2022-12-18T07:39:40;53.10;;;23.17;;
52962;SDS011;38827;53.024;6.596;2022-12-18T07:42:06;50.00;;;22.90;;
52962;SDS011;38827;53.024;6.596;2022-12-18T07:44:51;47.83;;;21.63;;
52962;SDS011;38827;53.024;6.596;2022-12-18T07:47:17;52.80;;;23.27;;
52962;SDS011;38827;53.024;6.596;2022-12-18T07:49:43;50.73;;;22.73;;
52962;SDS011;38827;53.024;6.596;2022-12-18T07:52:08;48.67;;;23.33;;
52962;SDS011;38827;53.024;6.596;2022-12-18T07:54:34;49.57;;;22.27;;
52962;SDS011;38827;53.024;6.596;2022-12-18T07:57:00;49.30;;;22.27;;
52962;SDS011;38827;53.024;6.596;2022-12-18T07:59:25;46.37;;;22.90;;
52962;SDS011;38827;53.024;6.596;2022-12-18T08:01:51;53.47;;;22.77;;
52962;SDS011;38827;53.024;6.596;2022-12-18T08:04:17;51.93;;;22.90;;
52962;SDS011;38827;53.024;6.596;2022-12-18T08:06:42;52.37;;;22.50;;
52962;SDS011;38827;53.024;6.596;2022-12-18T08:09:09;46.43;;;21.13;;
52962;SDS011;38827;53.024;6.596;2022-12-18T08:11:35;46.95;;;22.08;;
52962;SDS011;38827;53.024;6.596;2022-12-18T08:14:01;47.83;;;22.63;;
52962;SDS011;38827;53.024;6.596;2022-12-18T08:16:27;48.73;;;22.10;;
52962;SDS011;38827;53.024;6.596;2022-12-18T08:18:52;45.23;;;21.67;;
52962;SDS011;38827;53.024;6.596;2022-12-18T08:21:22;47.70;;;22.25;;
52962;SDS011;38827;53.024;6.596;2022-12-18T08:23:52;44.45;;;21.67;;
52962;SDS011;38827;53.024;6.596;2022-12-18T08:26:19;39.97;;;21.02;;
52962;SDS011;38827;53.024;6.596;2022-12-18T08:28:45;42.77;;;21.13;;
52962;SDS011;38827;53.024;6.596;2022-12-18T08:31:11;37.20;;;19.40;;
52962;SDS011;38827;53.024;6.596;2022-12-18T08:33:37;35.23;;;19.10;;
52962;SDS011;38827;53.024;6.596;2022-12-18T08:36:04;38.88;;;20.05;;
52962;SDS011;38827;53.024;6.596;2022-12-18T08:38:33;37.72;;;19.17;;
52962;SDS011;38827;53.024;6.596;2022-12-18T08:41:00;35.20;;;19.63;;
52962;SDS011;38827;53.024;6.596;2022-12-18T08:43:44;37.22;;;19.42;;
52962;SDS011;38827;53.024;6.596;2022-12-18T08:46:31;37.95;;;19.65;;
52962;SDS011;38827;53.024;6.596;2022-12-18T08:49:02;35.20;;;19.42;;
52962;SDS011;38827;53.024;6.596;2022-12-18T08:51:29;34.17;;;19.23;;
52962;SDS011;38827;53.024;6.596;2022-12-18T08:53:55;34.55;;;18.55;;
52962;SDS011;38827;53.024;6.596;2022-12-18T08:56:21;34.58;;;18.05;;
52962;SDS011;38827;53.024;6.596;2022-12-18T08:58:50;34.83;;;18.98;;
52962;SDS011;38827;53.024;6.596;2022-12-18T09:01:20;34.40;;;17.27;;
52962;SDS011;38827;53.024;6.596;2022-12-18T09:03:48;35.13;;;17.95;;
52962;SDS011;38827;53.024;6.596;2022-12-18T09:06:19;31.13;;;17.58;;
52962;SDS011;38827;53.024;6.596;2022-12-18T09:08:46;33.05;;;17.58;;
52962;SDS011;38827;53.024;6.596;2022-12-18T09:11:13;28.17;;;16.65;;
52962;SDS011;38827;53.024;6.596;2022-12-18T09:13:43;29.55;;;16.95;;
52962;SDS011;38827;53.024;6.596;2022-12-18T09:16:09;30.70;;;16.38;;
52962;SDS011;38827;53.024;6.596;2022-12-18T09:18:34;28.25;;;15.88;;
52962;SDS011;38827;53.024;6.596;2022-12-18T09:23:30;29.50;;;16.13;;
52962;SDS011;38827;53.024;6.596;2022-12-18T09:26:08;31.05;;;16.30;;
52962;SDS011;38827;53.024;6.596;2022-12-18T09:32:03;26.80;;;15.23;;
52962;SDS011;38827;53.024;6.596;2022-12-18T09:34:28;24.58;;;14.70;;
52962;SDS011;38827;53.024;6.596;2022-12-18T09:36:55;29.48;;;15.63;;
52962;SDS011;38827;53.024;6.596;2022-12-18T09:39:54;22.70;;;13.98;;
52962;SDS011;38827;53.024;6.596;2022-12-18T09:46:10;27.35;;;15.18;;
52962;SDS011;38827;53.024;6.596;2022-12-18T09:49:18;34.05;;;17.73;;
52962;SDS011;38827;53.024;6.596;2022-12-18T09:52:02;170.38;;;60.58;;
52962;SDS011;38827;53.024;6.596;2022-12-18T09:54:49;195.40;;;73.60;;
52962;SDS011;38827;53.024;6.596;2022-12-18T10:00:37;62.25;;;43.47;;
52962;SDS011;38827;53.024;6.596;2022-12-18T10:03:13;24.13;;;12.65;;
52962;SDS011;38827;53.024;6.596;2022-12-18T10:14:06;14.27;;;8.93;;
52962;SDS011;38827;53.024;6.596;2022-12-18T10:22:56;13.63;;;8.63;;
52962;SDS011;38827;53.024;6.596;2022-12-18T10:25:32;13.77;;;9.15;;
52962;SDS011;38827;53.024;6.596;2022-12-18T10:28:23;14.70;;;9.00;;
52962;SDS011;38827;53.024;6.596;2022-12-18T10:30:51;15.70;;;9.27;;
52962;SDS011;38827;53.024;6.596;2022-12-18T10:33:19;12.57;;;8.10;;
52962;SDS011;38827;53.024;6.596;2022-12-18T10:35:51;14.48;;;9.50;;
52962;SDS011;38827;53.024;6.596;2022-12-18T10:49:18;11.70;;;6.90;;
52962;SDS011;38827;53.024;6.596;2022-12-18T10:52:26;11.82;;;8.93;;
52962;SDS011;38827;53.024;6.596;2022-12-18T10:54:57;12.75;;;8.20;;
52962;SDS011;38827;53.024;6.596;2022-12-18T10:57:36;14.35;;;9.68;;
52962;SDS011;38827;53.024;6.596;2022-12-18T11:02:52;14.90;;;10.50;;
52962;SDS011;38827;53.024;6.596;2022-12-18T11:05:36;12.02;;;7.50;;
52962;SDS011;38827;53.024;6.596;2022-12-18T11:08:11;13.77;;;8.73;;
52962;SDS011;38827;53.024;6.596;2022-12-18T11:10:47;15.05;;;8.48;;
52962;SDS011;38827;53.024;6.596;2022-12-18T11:13:17;14.07;;;8.98;;
52962;SDS011;38827;53.024;6.596;2022-12-18T11:15:45;13.70;;;9.20;;
52962;SDS011;38827;53.024;6.596;2022-12-18T11:23:33;15.70;;;8.82;;
52962;SDS011;38827;53.024;6.596;2022-12-18T11:28:50;12.82;;;8.77;;
52962;SDS011;38827;53.024;6.596;2022-12-18T13:00:18;11.32;;;6.10;;
52962;SDS011;38827;53.024;6.596;2022-12-18T13:10:11;10.00;;;6.70;;
52962;SDS011;38827;53.024;6.596;2022-12-18T13:21:23;10.65;;;6.78;;
52962;SDS011;38827;53.024;6.596;2022-12-18T13:24:23;11.15;;;6.85;;
52962;SDS011;38827;53.024;6.596;2022-12-18T13:29:43;12.70;;;8.27;;
52962;SDS011;38827;53.024;6.596;2022-12-18T13:51:34;10.80;;;6.50;;
52962;SDS011;38827;53.024;6.596;2022-12-18T13:54:01;9.88;;;5.95;;
52962;SDS011;38827;53.024;6.596;2022-12-18T13:56:52;11.85;;;6.47;;
52962;SDS011;38827;53.024;6.596;2022-12-18T14:02:23;9.65;;;5.88;;
52962;SDS011;38827;53.024;6.596;2022-12-18T14:04:51;9.25;;;5.97;;
52962;SDS011;38827;53.024;6.596;2022-12-18T14:09:53;9.13;;;5.88;;
52962;SDS011;38827;53.024;6.596;2022-12-18T14:17:42;9.68;;;6.07;;
52962;SDS011;38827;53.024;6.596;2022-12-18T14:20:24;9.25;;;6.07;;
52962;SDS011;38827;53.024;6.596;2022-12-18T14:23:24;9.68;;;5.95;;
52962;SDS011;38827;53.024;6.596;2022-12-18T14:26:22;8.85;;;5.80;;
52962;SDS011;38827;53.024;6.596;2022-12-18T14:28:59;12.68;;;6.43;;
52962;SDS011;38827;53.024;6.596;2022-12-18T14:31:44;11.10;;;6.88;;
52962;SDS011;38827;53.024;6.596;2022-12-18T14:34:16;11.70;;;7.80;;
52962;SDS011;38827;53.024;6.596;2022-12-18T14:37:07;9.25;;;6.20;;
52962;SDS011;38827;53.024;6.596;2022-12-18T14:43:01;9.18;;;6.55;;
52962;SDS011;38827;53.024;6.596;2022-12-18T14:45:42;13.75;;;6.85;;
52962;SDS011;38827;53.024;6.596;2022-12-18T14:51:12;12.35;;;7.60;;
52962;SDS011;38827;53.024;6.596;2022-12-18T14:54:14;11.45;;;7.13;;
52962;SDS011;38827;53.024;6.596;2022-12-18T14:56:57;10.52;;;6.90;;
52962;SDS011;38827;53.024;6.596;2022-12-18T15:05:42;13.77;;;7.47;;
52962;SDS011;38827;53.024;6.596;2022-12-18T15:14:22;11.73;;;7.75;;
52962;SDS011;38827;53.024;6.596;2022-12-18T15:17:02;12.60;;;7.70;;
52962;SDS011;38827;53.024;6.596;2022-12-18T15:22:01;15.13;;;9.13;;
52962;SDS011;38827;53.024;6.596;2022-12-18T15:24:27;13.55;;;8.68;;
52962;SDS011;38827;53.024;6.596;2022-12-18T15:27:05;12.35;;;8.07;;
52962;SDS011;38827;53.024;6.596;2022-12-18T15:30:19;14.50;;;8.90;;
52962;SDS011;38827;53.024;6.596;2022-12-18T15:33:59;15.02;;;9.40;;
52962;SDS011;38827;53.024;6.596;2022-12-18T15:36:40;15.95;;;10.10;;
52962;SDS011;38827;53.024;6.596;2022-12-18T15:39:21;20.48;;;11.77;;
52962;SDS011;38827;53.024;6.596;2022-12-18T15:42:00;18.05;;;12.32;;
52962;SDS011;38827;53.024;6.596;2022-12-18T15:45:21;16.50;;;9.60;;
52962;SDS011;38827;53.024;6.596;2022-12-18T15:47:59;16.30;;;9.50;;
52962;SDS011;38827;53.024;6.596;2022-12-18T15:53:20;15.07;;;9.95;;
52962;SDS011;38827;53.024;6.596;2022-12-18T15:55:58;19.15;;;11.90;;
52962;SDS011;38827;53.024;6.596;2022-12-18T16:01:18;15.13;;;9.70;;
52962;SDS011;38827;53.024;6.596;2022-12-18T16:03:59;13.55;;;9.02;;
52962;SDS011;38827;53.024;6.596;2022-12-18T16:06:31;19.02;;;10.90;;
52962;SDS011;38827;53.024;6.596;2022-12-18T16:12:03;17.58;;;10.70;;
52962;SDS011;38827;53.024;6.596;2022-12-18T16:18:12;43.53;;;23.27;;
52962;SDS011;38827;53.024;6.596;2022-12-18T16:20:47;86.57;;;36.13;;
52962;SDS011;38827;53.024;6.596;2022-12-18T16:32:12;17.20;;;11.65;;
52962;SDS011;38827;53.024;6.596;2022-12-18T16:35:22;16.33;;;10.15;;
52962;SDS011;38827;53.024;6.596;2022-12-18T16:38:17;16.63;;;10.25;;
52962;SDS011;38827;53.024;6.596;2022-12-18T16:40:43;17.70;;;10.57;;
52962;SDS011;38827;53.024;6.596;2022-12-18T16:46:22;16.08;;;10.38;;
52962;SDS011;38827;53.024;6.596;2022-12-18T16:48:48;15.43;;;9.15;;
52962;SDS011;38827;53.024;6.596;2022-12-18T16:54:23;16.23;;;10.00;;
52962;SDS011;38827;53.024;6.596;2022-12-18T16:59:28;16.70;;;10.38;;
52962;SDS011;38827;53.024;6.596;2022-12-18T17:03:15;18.05;;;10.13;;
52962;SDS011;38827;53.024;6.596;2022-12-18T17:15:40;17.60;;;9.93;;
52962;SDS011;38827;53.024;6.596;2022-12-18T17:19:41;16.08;;;9.18;;
52962;SDS011;38827;53.024;6.596;2022-12-18T17:31:56;14.32;;;9.32;;
52962;SDS011;38827;53.024;6.596;2022-12-18T17:36:57;15.55;;;9.60;;
52962;SDS011;38827;53.024;6.596;2022-12-18T17:44:08;15.13;;;8.85;;
52962;SDS011;38827;53.024;6.596;2022-12-18T18:14:11;17.13;;;9.15;;
52962;SDS011;38827;53.024;6.596;2022-12-18T18:16:40;18.70;;;11.35;;
52962;SDS011;38827;53.024;6.596;2022-12-18T18:19:10;13.30;;;8.27;;
52962;SDS011;38827;53.024;6.596;2022-12-18T18:25:07;13.93;;;8.57;;
52962;SDS011;38827;53.024;6.596;2022-12-18T18:30:48;13.13;;;7.68;;
52962;SDS011;38827;53.024;6.596;2022-12-18T18:33:17;13.68;;;8.70;;
52962;SDS011;38827;53.024;6.596;2022-12-18T18:35:43;14.07;;;9.32;;
52962;SDS011;38827;53.024;6.596;2022-12-18T18:38:22;17.77;;;10.43;;
52962;SDS011;38827;53.024;6.596;2022-12-18T18:41:03;18.02;;;10.25;;
52962;SDS011;38827;53.024;6.596;2022-12-18T18:43:32;18.35;;;10.60;;
52962;SDS011;38827;53.024;6.596;2022-12-18T18:49:04;13.32;;;8.85;;
52962;SDS011;38827;53.024;6.596;2022-12-18T18:56:37;14.00;;;9.20;;
52962;SDS011;38827;53.024;6.596;2022-12-18T19:02:32;14.57;;;8.88;;
52962;SDS011;38827;53.024;6.596;2022-12-18T19:11:22;14.15;;;8.60;;
52962;SDS011;38827;53.024;6.596;2022-12-18T19:14:38;16.13;;;9.75;;
52962;SDS011;38827;53.024;6.596;2022-12-18T19:17:21;15.93;;;8.82;;
52962;SDS011;38827;53.024;6.596;2022-12-18T19:19:58;14.27;;;9.50;;
52962;SDS011;38827;53.024;6.596;2022-12-18T19:22:35;28.70;;;15.70;;
52962;SDS011;38827;53.024;6.596;2022-12-18T19:25:07;16.35;;;10.20;;
52962;SDS011;38827;53.024;6.596;2022-12-18T19:28:04;15.77;;;9.80;;
52962;SDS011;38827;53.024;6.596;2022-12-18T19:31:11;16.55;;;9.73;;
52962;SDS011;38827;53.024;6.596;2022-12-18T19:33:51;14.35;;;9.82;;
52962;SDS011;38827;53.024;6.596;2022-12-18T19:36:32;23.02;;;14.30;;
52962;SDS011;38827;53.024;6.596;2022-12-18T19:39:15;17.42;;;10.27;;
52962;SDS011;38827;53.024;6.596;2022-12-18T19:41:45;15.35;;;9.98;;
52962;SDS011;38827;53.024;6.596;2022-12-18T19:44:11;17.98;;;11.38;;
52962;SDS011;38827;53.024;6.596;2022-12-18T19:46:41;17.80;;;10.82;;
52962;SDS011;38827;53.024;6.596;2022-12-18T19:49:11;23.40;;;14.00;;
52962;SDS011;38827;53.024;6.596;2022-12-18T19:51:45;18.00;;;10.98;;
52962;SDS011;38827;53.024;6.596;2022-12-18T19:54:16;18.90;;;11.90;;
52962;SDS011;38827;53.024;6.596;2022-12-18T19:56:42;16.67;;;10.70;;
52962;SDS011;38827;53.024;6.596;2022-12-18T19:59:08;17.05;;;10.52;;
52962;SDS011;38827;53.024;6.596;2022-12-18T20:01:34;20.98;;;12.38;;
52962;SDS011;38827;53.024;6.596;2022-12-18T20:06:34;20.93;;;12.23;;
52962;SDS011;38827;53.024;6.596;2022-12-18T20:09:11;20.20;;;12.15;;
52962;SDS011;38827;53.024;6.596;2022-12-18T20:11:36;21.40;;;13.10;;
52962;SDS011;38827;53.024;6.596;2022-12-18T20:14:02;21.13;;;13.05;;
52962;SDS011;38827;53.024;6.596;2022-12-18T20:16:33;29.30;;;16.55;;
52962;SDS011;38827;53.024;6.596;2022-12-18T20:18:59;38.00;;;20.00;;
52962;SDS011;38827;53.024;6.596;2022-12-18T20:21:24;32.95;;;17.80;;
52962;SDS011;38827;53.024;6.596;2022-12-18T20:23:50;21.75;;;11.85;;
52962;SDS011;38827;53.024;6.596;2022-12-18T20:26:16;34.00;;;18.20;;
52962;SDS011;38827;53.024;6.596;2022-12-18T20:28:42;26.65;;;16.20;;
52962;SDS011;38827;53.024;6.596;2022-12-18T20:31:08;36.25;;;16.67;;
52962;SDS011;38827;53.024;6.596;2022-12-18T20:33:35;22.20;;;13.80;;
52962;SDS011;38827;53.024;6.596;2022-12-18T20:36:05;21.25;;;13.18;;
52962;SDS011;38827;53.024;6.596;2022-12-18T20:38:32;19.98;;;12.68;;
52962;SDS011;38827;53.024;6.596;2022-12-18T20:40:59;30.52;;;18.85;;
52962;SDS011;38827;53.024;6.596;2022-12-18T20:43:28;26.13;;;15.73;;
52962;SDS011;38827;53.024;6.596;2022-12-18T20:46:04;21.02;;;13.52;;
52962;SDS011;38827;53.024;6.596;2022-12-18T20:48:32;28.35;;;16.10;;
52962;SDS011;38827;53.024;6.596;2022-12-18T20:50:59;30.02;;;17.73;;